TimeEST,TemperatureF,Dew PointF,Humidity,Sea Level PressureIn,VisibilityMPH,Wind Direction,Wind SpeedMPH,Gust SpeedMPH,PrecipitationIn,Events,Conditions,WindDirDegrees,DateUTC
12:53 AM,66.9,64.0,90,30.03,10.0,Calm,Calm,-,N/A,,Partly Cloudy,0,2012-11-05 05:53:00
1:53 AM,66.0,64.0,93,30.02,10.0,Calm,Calm,-,N/A,,Scattered Clouds,0,2012-11-05 06:53:00
2:53 AM,66.0,64.0,93,30.01,6.0,Calm,Calm,-,N/A,,Clear,0,2012-11-05 07:53:00
3:53 AM,66.0,64.9,96,29.99,7.0,Calm,Calm,-,N/A,,Clear,0,2012-11-05 08:53:00
4:53 AM,64.0,63.0,96,30.00,6.0,NW,4.6,-,N/A,,Clear,310,2012-11-05 09:53:00
5:53 AM,64.9,64.0,97,30.01,9.0,Calm,Calm,-,N/A,,Clear,0,2012-11-05 10:53:00
6:53 AM,66.0,64.0,93,30.03,10.0,Calm,Calm,-,N/A,,Clear,0,2012-11-05 11:53:00
7:53 AM,69.1,66.0,90,30.02,10.0,Calm,Calm,-,N/A,,Clear,0,2012-11-05 12:53:00
8:53 AM,72.0,64.0,76,30.03,10.0,NNW,4.6,-,N/A,,Mostly Cloudy,340,2012-11-05 13:53:00
9:53 AM,75.0,60.1,60,30.03,10.0,North,4.6,-,N/A,,Clear,350,2012-11-05 14:53:00
10:53 AM,77.0,63.0,62,30.02,10.0,NW,5.8,-,N/A,,Clear,320,2012-11-05 15:53:00
11:53 AM,79.0,62.1,56,30.00,10.0,NW,10.4,-,N/A,,Clear,310,2012-11-05 16:53:00
12:53 PM,80.1,61.0,52,29.97,10.0,WNW,6.9,-,N/A,,Clear,290,2012-11-05 17:53:00
1:53 PM,79.0,61.0,54,29.95,10.0,NW,6.9,-,N/A,,Clear,310,2012-11-05 18:53:00
2:53 PM,79.0,59.0,50,29.95,10.0,NNW,4.6,-,N/A,,Clear,330,2012-11-05 19:53:00
3:53 PM,77.0,60.1,56,29.95,10.0,NNW,6.9,-,N/A,,Mostly Cloudy,340,2012-11-05 20:53:00
4:53 PM,75.0,61.0,62,29.95,10.0,North,3.5,-,N/A,,Clear,350,2012-11-05 21:53:00
5:53 PM,73.9,59.0,59,29.95,10.0,Calm,Calm,-,N/A,,Clear,0,2012-11-05 22:53:00
6:53 PM,71.1,60.1,68,29.97,10.0,Calm,Calm,-,N/A,,Partly Cloudy,0,2012-11-05 23:53:00
7:53 PM,69.1,61.0,75,29.98,10.0,Calm,Calm,-,N/A,,Clear,0,2012-11-06 00:53:00
8:53 PM,68.0,62.1,81,29.98,10.0,Calm,Calm,-,N/A,,Scattered Clouds,0,2012-11-06 01:53:00
9:53 PM,70.0,63.0,78,29.98,10.0,Calm,Calm,-,N/A,,Overcast,0,2012-11-06 02:53:00
10:53 PM,66.9,63.0,87,29.97,10.0,WNW,3.5,-,N/A,,Clear,290,2012-11-06 03:53:00
11:53 PM,66.0,63.0,90,29.95,10.0,Calm,Calm,-,N/A,,Clear,0,2012-11-06 04:53:00